sensor_id;sensor_type;location;lat;lon;timestamp;temperature;humidity
70184;DHT22;57554;51.546;6.776;2023-12-04T00:00:04;1.80;71.30
70184;DHT22;57554;51.546;6.776;2023-12-04T00:02:30;1.80;71.30
70184;DHT22;57554;51.546;6.776;2023-12-04T00:04:55;1.80;71.20
70184;DHT22;57554;51.546;6.776;2023-12-04T00:07:21;1.80;71.10
70184;DHT22;57554;51.546;6.776;2023-12-04T00:09:47;1.80;71.00
70184;DHT22;57554;51.546;6.776;2023-12-04T00:12:12;1.80;70.90
70184;DHT22;57554;51.546;6.776;2023-12-04T00:14:38;1.80;70.80
70184;DHT22;57554;51.546;6.776;2023-12-04T00:17:03;1.90;70.80
70184;DHT22;57554;51.546;6.776;2023-12-04T00:19:29;1.90;70.60
70184;DHT22;57554;51.546;6.776;2023-12-04T00:21:54;1.90;70.60
70184;DHT22;57554;51.546;6.776;2023-12-04T00:24:20;1.90;70.50
70184;DHT22;57554;51.546;6.776;2023-12-04T00:26:46;1.90;70.40
70184;DHT22;57554;51.546;6.776;2023-12-04T00:29:11;1.90;70.40
70184;DHT22;57554;51.546;6.776;2023-12-04T00:31:37;1.90;70.30
70184;DHT22;57554;51.546;6.776;2023-12-04T00:34:02;1.90;70.20
70184;DHT22;57554;51.546;6.776;2023-12-04T00:36:28;2.00;70.10
70184;DHT22;57554;51.546;6.776;2023-12-04T00:38:53;2.00;70.10
70184;DHT22;57554;51.546;6.776;2023-12-04T00:41:19;2.00;70.00
70184;DHT22;57554;51.546;6.776;2023-12-04T00:43:44;2.00;69.90
70184;DHT22;57554;51.546;6.776;2023-12-04T00:46:10;2.00;69.80
70184;DHT22;57554;51.546;6.776;2023-12-04T00:48:36;2.00;69.80
70184;DHT22;57554;51.546;6.776;2023-12-04T00:51:01;2.00;69.70
70184;DHT22;57554;51.546;6.776;2023-12-04T00:53:27;2.00;69.60
70184;DHT22;57554;51.546;6.776;2023-12-04T00:55:52;2.00;69.50
70184;DHT22;57554;51.546;6.776;2023-12-04T00:58:18;2.00;69.40
70184;DHT22;57554;51.546;6.776;2023-12-04T01:00:44;2.00;69.40
70184;DHT22;57554;51.546;6.776;2023-12-04T01:03:09;2.00;69.40
70184;DHT22;57554;51.546;6.776;2023-12-04T01:05:35;2.10;69.20
70184;DHT22;57554;51.546;6.776;2023-12-04T01:08:00;2.10;69.20
70184;DHT22;57554;51.546;6.776;2023-12-04T01:10:26;2.10;69.10
70184;DHT22;57554;51.546;6.776;2023-12-04T01:12:51;2.10;69.00
70184;DHT22;57554;51.546;6.776;2023-12-04T01:15:17;2.10;69.00
70184;DHT22;57554;51.546;6.776;2023-12-04T01:17:43;2.10;68.90
70184;DHT22;57554;51.546;6.776;2023-12-04T01:20:09;2.10;69.00
70184;DHT22;57554;51.546;6.776;2023-12-04T01:22:34;2.10;68.80
70184;DHT22;57554;51.546;6.776;2023-12-04T01:25:00;2.10;68.70
70184;DHT22;57554;51.546;6.776;2023-12-04T01:27:25;2.10;68.70
70184;DHT22;57554;51.546;6.776;2023-12-04T01:29:51;2.10;68.70
70184;DHT22;57554;51.546;6.776;2023-12-04T01:32:16;2.10;68.50
70184;DHT22;57554;51.546;6.776;2023-12-04T01:34:42;2.20;68.50
70184;DHT22;57554;51.546;6.776;2023-12-04T01:37:07;2.10;68.40
70184;DHT22;57554;51.546;6.776;2023-12-04T01:39:34;2.10;68.20
70184;DHT22;57554;51.546;6.776;2023-12-04T01:41:59;2.10;68.20
70184;DHT22;57554;51.546;6.776;2023-12-04T01:44:25;2.10;68.20
70184;DHT22;57554;51.546;6.776;2023-12-04T01:46:51;2.10;68.10
70184;DHT22;57554;51.546;6.776;2023-12-04T01:49:17;2.10;68.00
70184;DHT22;57554;51.546;6.776;2023-12-04T01:51:43;2.20;68.00
70184;DHT22;57554;51.546;6.776;2023-12-04T01:54:10;2.10;67.90
70184;DHT22;57554;51.546;6.776;2023-12-04T01:56:36;2.20;67.80
70184;DHT22;57554;51.546;6.776;2023-12-04T01:59:03;2.20;67.80
70184;DHT22;57554;51.546;6.776;2023-12-04T02:01:29;2.20;67.70
70184;DHT22;57554;51.546;6.776;2023-12-04T02:03:56;2.10;67.60
70184;DHT22;57554;51.546;6.776;2023-12-04T02:06:22;2.20;67.60
70184;DHT22;57554;51.546;6.776;2023-12-04T02:08:48;2.20;67.40
70184;DHT22;57554;51.546;6.776;2023-12-04T02:11:14;2.20;67.40
70184;DHT22;57554;51.546;6.776;2023-12-04T02:13:40;2.20;67.30
70184;DHT22;57554;51.546;6.776;2023-12-04T02:16:09;2.20;67.30
70184;DHT22;57554;51.546;6.776;2023-12-04T02:18:35;2.20;67.30
70184;DHT22;57554;51.546;6.776;2023-12-04T02:21:01;2.10;67.20
70184;DHT22;57554;51.546;6.776;2023-12-04T02:23:27;2.20;67.20
70184;DHT22;57554;51.546;6.776;2023-12-04T02:26:01;2.20;67.10
70184;DHT22;57554;51.546;6.776;2023-12-04T02:28:32;2.20;67.10
70184;DHT22;57554;51.546;6.776;2023-12-04T02:30:58;2.20;66.90
70184;DHT22;57554;51.546;6.776;2023-12-04T02:33:25;2.20;66.90
70184;DHT22;57554;51.546;6.776;2023-12-04T02:35:53;2.20;66.80
70184;DHT22;57554;51.546;6.776;2023-12-04T02:38:19;2.20;66.70
70184;DHT22;57554;51.546;6.776;2023-12-04T02:40:46;2.20;66.70
70184;DHT22;57554;51.546;6.776;2023-12-04T02:43:11;2.20;66.60
70184;DHT22;57554;51.546;6.776;2023-12-04T02:45:37;2.20;66.50
70184;DHT22;57554;51.546;6.776;2023-12-04T02:48:03;2.20;66.40
70184;DHT22;57554;51.546;6.776;2023-12-04T02:50:28;2.20;66.30
70184;DHT22;57554;51.546;6.776;2023-12-04T02:52:54;2.20;66.30
70184;DHT22;57554;51.546;6.776;2023-12-04T02:55:20;2.20;66.10
70184;DHT22;57554;51.546;6.776;2023-12-04T02:57:45;2.20;66.10
70184;DHT22;57554;51.546;6.776;2023-12-04T03:00:11;2.20;66.10
70184;DHT22;57554;51.546;6.776;2023-12-04T03:02:36;2.20;66.00
70184;DHT22;57554;51.546;6.776;2023-12-04T03:05:02;2.20;65.80
70184;DHT22;57554;51.546;6.776;2023-12-04T03:07:28;2.20;65.80
70184;DHT22;57554;51.546;6.776;2023-12-04T03:09:53;2.20;65.70
70184;DHT22;57554;51.546;6.776;2023-12-04T03:12:19;2.10;65.50
70184;DHT22;57554;51.546;6.776;2023-12-04T03:14:44;2.20;65.40
70184;DHT22;57554;51.546;6.776;2023-12-04T03:17:10;2.20;65.30
70184;DHT22;57554;51.546;6.776;2023-12-04T03:19:35;2.20;65.30
70184;DHT22;57554;51.546;6.776;2023-12-04T03:22:01;2.20;65.10
70184;DHT22;57554;51.546;6.776;2023-12-04T03:24:27;2.20;65.00
70184;DHT22;57554;51.546;6.776;2023-12-04T03:26:53;2.20;64.90
70184;DHT22;57554;51.546;6.776;2023-12-04T03:29:18;2.20;64.70
70184;DHT22;57554;51.546;6.776;2023-12-04T03:31:44;2.20;64.60
70184;DHT22;57554;51.546;6.776;2023-12-04T03:34:09;2.20;64.40
70184;DHT22;57554;51.546;6.776;2023-12-04T03:36:35;2.20;64.30
70184;DHT22;57554;51.546;6.776;2023-12-04T03:39:00;2.20;64.20
70184;DHT22;57554;51.546;6.776;2023-12-04T03:41:26;2.20;63.90
70184;DHT22;57554;51.546;6.776;2023-12-04T03:43:51;2.20;63.90
70184;DHT22;57554;51.546;6.776;2023-12-04T03:46:17;2.30;63.80
70184;DHT22;57554;51.546;6.776;2023-12-04T03:48:42;2.20;63.70
70184;DHT22;57554;51.546;6.776;2023-12-04T03:51:08;2.30;63.70
70184;DHT22;57554;51.546;6.776;2023-12-04T03:53:34;2.20;63.50
70184;DHT22;57554;51.546;6.776;2023-12-04T03:55:59;2.30;63.40
70184;DHT22;57554;51.546;6.776;2023-12-04T03:58:25;2.30;63.30
70184;DHT22;57554;51.546;6.776;2023-12-04T04:00:50;2.30;63.20
70184;DHT22;57554;51.546;6.776;2023-12-04T04:03:16;2.30;63.00
70184;DHT22;57554;51.546;6.776;2023-12-04T04:05:41;2.30;62.90
70184;DHT22;57554;51.546;6.776;2023-12-04T04:08:07;2.40;62.70
70184;DHT22;57554;51.546;6.776;2023-12-04T04:10:33;2.30;62.50
70184;DHT22;57554;51.546;6.776;2023-12-04T04:12:59;2.30;62.40
70184;DHT22;57554;51.546;6.776;2023-12-04T04:15:25;2.40;62.10
70184;DHT22;57554;51.546;6.776;2023-12-04T04:17:51;2.30;61.90
70184;DHT22;57554;51.546;6.776;2023-12-04T04:20:17;2.40;61.90
70184;DHT22;57554;51.546;6.776;2023-12-04T04:22:43;2.40;61.60
70184;DHT22;57554;51.546;6.776;2023-12-04T04:25:08;2.40;61.60
70184;DHT22;57554;51.546;6.776;2023-12-04T04:27:34;2.40;61.40
70184;DHT22;57554;51.546;6.776;2023-12-04T04:30:00;2.40;61.30
70184;DHT22;57554;51.546;6.776;2023-12-04T04:32:26;2.40;61.20
70184;DHT22;57554;51.546;6.776;2023-12-04T04:34:52;2.40;60.80
70184;DHT22;57554;51.546;6.776;2023-12-04T04:37:17;2.40;60.70
70184;DHT22;57554;51.546;6.776;2023-12-04T04:39:43;2.40;60.50
70184;DHT22;57554;51.546;6.776;2023-12-04T04:42:08;2.50;60.50
70184;DHT22;57554;51.546;6.776;2023-12-04T04:44:34;2.50;60.30
70184;DHT22;57554;51.546;6.776;2023-12-04T04:47:00;2.50;60.00
70184;DHT22;57554;51.546;6.776;2023-12-04T04:49:25;2.50;60.00
70184;DHT22;57554;51.546;6.776;2023-12-04T04:51:51;2.50;59.70
70184;DHT22;57554;51.546;6.776;2023-12-04T04:54:16;2.50;59.60
70184;DHT22;57554;51.546;6.776;2023-12-04T04:56:42;2.50;59.50
70184;DHT22;57554;51.546;6.776;2023-12-04T04:59:07;2.50;59.30
70184;DHT22;57554;51.546;6.776;2023-12-04T05:01:33;2.50;59.30
70184;DHT22;57554;51.546;6.776;2023-12-04T05:03:58;2.50;59.20
70184;DHT22;57554;51.546;6.776;2023-12-04T05:06:25;2.50;59.00
70184;DHT22;57554;51.546;6.776;2023-12-04T05:08:52;2.50;58.90
70184;DHT22;57554;51.546;6.776;2023-12-04T05:11:18;2.50;58.80
70184;DHT22;57554;51.546;6.776;2023-12-04T05:13:46;2.50;58.50
70184;DHT22;57554;51.546;6.776;2023-12-04T05:16:12;2.50;58.40
70184;DHT22;57554;51.546;6.776;2023-12-04T05:18:41;2.50;58.20
70184;DHT22;57554;51.546;6.776;2023-12-04T05:21:10;2.50;58.10
70184;DHT22;57554;51.546;6.776;2023-12-04T05:23:39;2.50;57.90
70184;DHT22;57554;51.546;6.776;2023-12-04T05:26:06;2.50;57.90
70184;DHT22;57554;51.546;6.776;2023-12-04T05:28:32;2.50;57.90
70184;DHT22;57554;51.546;6.776;2023-12-04T05:30:58;2.50;57.70
70184;DHT22;57554;51.546;6.776;2023-12-04T05:33:24;2.50;57.70
70184;DHT22;57554;51.546;6.776;2023-12-04T05:35:49;2.50;57.60
70184;DHT22;57554;51.546;6.776;2023-12-04T05:38:17;2.50;57.50
70184;DHT22;57554;51.546;6.776;2023-12-04T05:40:43;2.50;57.50
70184;DHT22;57554;51.546;6.776;2023-12-04T05:43:08;2.50;57.40
70184;DHT22;57554;51.546;6.776;2023-12-04T05:45:34;2.40;57.30
70184;DHT22;57554;51.546;6.776;2023-12-04T05:47:59;2.50;57.30
70184;DHT22;57554;51.546;6.776;2023-12-04T05:50:25;2.50;57.30
70184;DHT22;57554;51.546;6.776;2023-12-04T05:52:51;2.40;57.30
70184;DHT22;57554;51.546;6.776;2023-12-04T05:55:16;2.50;57.40
70184;DHT22;57554;51.546;6.776;2023-12-04T05:57:43;2.50;57.20
70184;DHT22;57554;51.546;6.776;2023-12-04T06:00:09;2.40;57.10
70184;DHT22;57554;51.546;6.776;2023-12-04T06:02:44;2.40;57.00
70184;DHT22;57554;51.546;6.776;2023-12-04T06:05:11;2.50;56.90
70184;DHT22;57554;51.546;6.776;2023-12-04T06:07:37;2.40;57.00
70184;DHT22;57554;51.546;6.776;2023-12-04T06:10:03;2.50;57.00
70184;DHT22;57554;51.546;6.776;2023-12-04T06:12:31;2.50;56.90
70184;DHT22;57554;51.546;6.776;2023-12-04T06:14:57;2.40;56.90
70184;DHT22;57554;51.546;6.776;2023-12-04T06:17:24;2.40;56.90
70184;DHT22;57554;51.546;6.776;2023-12-04T06:19:50;2.40;57.00
70184;DHT22;57554;51.546;6.776;2023-12-04T06:22:15;2.40;57.00
70184;DHT22;57554;51.546;6.776;2023-12-04T06:24:44;2.50;57.00
70184;DHT22;57554;51.546;6.776;2023-12-04T06:27:13;2.40;57.00
70184;DHT22;57554;51.546;6.776;2023-12-04T06:29:40;2.40;57.10
70184;DHT22;57554;51.546;6.776;2023-12-04T06:32:06;2.40;57.10
70184;DHT22;57554;51.546;6.776;2023-12-04T06:34:33;2.40;57.10
70184;DHT22;57554;51.546;6.776;2023-12-04T06:36:59;2.50;57.00
70184;DHT22;57554;51.546;6.776;2023-12-04T06:39:32;2.50;56.90
70184;DHT22;57554;51.546;6.776;2023-12-04T06:41:59;2.50;56.80
70184;DHT22;57554;51.546;6.776;2023-12-04T06:44:25;2.50;56.80
70184;DHT22;57554;51.546;6.776;2023-12-04T06:46:52;2.50;56.80
70184;DHT22;57554;51.546;6.776;2023-12-04T06:49:18;2.50;56.90
70184;DHT22;57554;51.546;6.776;2023-12-04T06:51:44;2.50;56.80
70184;DHT22;57554;51.546;6.776;2023-12-04T06:54:09;2.50;56.70
70184;DHT22;57554;51.546;6.776;2023-12-04T06:56:36;2.60;56.60
70184;DHT22;57554;51.546;6.776;2023-12-04T06:59:01;2.60;56.50
70184;DHT22;57554;51.546;6.776;2023-12-04T07:01:27;2.60;56.60
70184;DHT22;57554;51.546;6.776;2023-12-04T07:03:53;2.60;56.60
70184;DHT22;57554;51.546;6.776;2023-12-04T07:06:18;2.60;56.60
70184;DHT22;57554;51.546;6.776;2023-12-04T07:08:44;2.60;56.60
70184;DHT22;57554;51.546;6.776;2023-12-04T07:11:09;2.60;56.50
70184;DHT22;57554;51.546;6.776;2023-12-04T07:13:35;2.60;56.50
70184;DHT22;57554;51.546;6.776;2023-12-04T07:16:01;2.60;56.50
70184;DHT22;57554;51.546;6.776;2023-12-04T07:18:28;2.60;56.40
70184;DHT22;57554;51.546;6.776;2023-12-04T07:20:53;2.60;56.40
70184;DHT22;57554;51.546;6.776;2023-12-04T07:23:19;2.60;56.30
70184;DHT22;57554;51.546;6.776;2023-12-04T07:25:44;2.60;56.30
70184;DHT22;57554;51.546;6.776;2023-12-04T07:28:11;2.60;56.30
70184;DHT22;57554;51.546;6.776;2023-12-04T07:30:37;2.60;56.30
70184;DHT22;57554;51.546;6.776;2023-12-04T07:33:03;2.60;56.40
70184;DHT22;57554;51.546;6.776;2023-12-04T07:35:28;2.60;56.30
70184;DHT22;57554;51.546;6.776;2023-12-04T07:37:54;2.60;56.30
70184;DHT22;57554;51.546;6.776;2023-12-04T07:40:19;2.60;56.30
70184;DHT22;57554;51.546;6.776;2023-12-04T07:42:46;2.60;56.30
70184;DHT22;57554;51.546;6.776;2023-12-04T07:45:12;2.60;56.30
70184;DHT22;57554;51.546;6.776;2023-12-04T07:47:37;2.70;56.30
70184;DHT22;57554;51.546;6.776;2023-12-04T07:50:03;2.70;56.20
70184;DHT22;57554;51.546;6.776;2023-12-04T07:52:30;2.70;56.20
70184;DHT22;57554;51.546;6.776;2023-12-04T07:54:55;2.70;56.10
70184;DHT22;57554;51.546;6.776;2023-12-04T07:57:22;2.80;56.20
70184;DHT22;57554;51.546;6.776;2023-12-04T07:59:48;2.80;56.10
70184;DHT22;57554;51.546;6.776;2023-12-04T08:02:13;2.70;56.10
70184;DHT22;57554;51.546;6.776;2023-12-04T08:04:39;2.80;56.00
70184;DHT22;57554;51.546;6.776;2023-12-04T08:07:05;2.80;56.10
70184;DHT22;57554;51.546;6.776;2023-12-04T08:09:30;2.90;56.10
70184;DHT22;57554;51.546;6.776;2023-12-04T08:11:56;2.90;56.00
70184;DHT22;57554;51.546;6.776;2023-12-04T08:14:21;2.90;55.90
70184;DHT22;57554;51.546;6.776;2023-12-04T08:16:48;2.90;55.80
70184;DHT22;57554;51.546;6.776;2023-12-04T08:19:13;3.00;55.80
70184;DHT22;57554;51.546;6.776;2023-12-04T08:21:39;3.00;55.80
70184;DHT22;57554;51.546;6.776;2023-12-04T08:24:04;3.00;55.70
70184;DHT22;57554;51.546;6.776;2023-12-04T08:26:30;3.00;55.70
70184;DHT22;57554;51.546;6.776;2023-12-04T08:28:56;3.00;55.60
70184;DHT22;57554;51.546;6.776;2023-12-04T08:31:22;3.00;55.70
70184;DHT22;57554;51.546;6.776;2023-12-04T08:33:47;3.00;55.60
70184;DHT22;57554;51.546;6.776;2023-12-04T08:36:13;3.00;55.60
70184;DHT22;57554;51.546;6.776;2023-12-04T08:38:38;3.10;55.50
70184;DHT22;57554;51.546;6.776;2023-12-04T08:41:04;3.10;55.40
70184;DHT22;57554;51.546;6.776;2023-12-04T08:43:30;3.10;55.40
70184;DHT22;57554;51.546;6.776;2023-12-04T08:45:56;3.20;55.40
70184;DHT22;57554;51.546;6.776;2023-12-04T08:48:21;3.30;55.20
70184;DHT22;57554;51.546;6.776;2023-12-04T08:50:47;3.30;55.00
70184;DHT22;57554;51.546;6.776;2023-12-04T08:53:13;3.40;55.00
70184;DHT22;57554;51.546;6.776;2023-12-04T08:55:39;3.40;54.70
70184;DHT22;57554;51.546;6.776;2023-12-04T08:58:04;3.40;54.60
70184;DHT22;57554;51.546;6.776;2023-12-04T09:00:30;3.50;54.60
70184;DHT22;57554;51.546;6.776;2023-12-04T09:02:55;3.50;54.40
70184;DHT22;57554;51.546;6.776;2023-12-04T09:05:21;3.50;54.10
70184;DHT22;57554;51.546;6.776;2023-12-04T09:07:47;3.50;54.10
70184;DHT22;57554;51.546;6.776;2023-12-04T09:10:13;3.50;54.10
70184;DHT22;57554;51.546;6.776;2023-12-04T09:12:39;3.60;54.10
70184;DHT22;57554;51.546;6.776;2023-12-04T09:15:06;3.60;54.00
70184;DHT22;57554;51.546;6.776;2023-12-04T09:17:32;3.60;54.00
70184;DHT22;57554;51.546;6.776;2023-12-04T09:19:57;3.60;54.00
70184;DHT22;57554;51.546;6.776;2023-12-04T09:22:23;3.70;54.00
70184;DHT22;57554;51.546;6.776;2023-12-04T09:24:49;3.70;53.90
70184;DHT22;57554;51.546;6.776;2023-12-04T09:27:15;3.80;53.80
70184;DHT22;57554;51.546;6.776;2023-12-04T09:29:41;3.80;53.60
70184;DHT22;57554;51.546;6.776;2023-12-04T09:32:07;3.80;53.30
70184;DHT22;57554;51.546;6.776;2023-12-04T09:34:32;3.80;53.10
70184;DHT22;57554;51.546;6.776;2023-12-04T09:36:58;3.80;53.00
70184;DHT22;57554;51.546;6.776;2023-12-04T09:39:23;3.90;52.80
70184;DHT22;57554;51.546;6.776;2023-12-04T09:41:49;3.90;52.70
70184;DHT22;57554;51.546;6.776;2023-12-04T09:44:16;3.90;52.40
70184;DHT22;57554;51.546;6.776;2023-12-04T09:46:42;3.90;52.30
70184;DHT22;57554;51.546;6.776;2023-12-04T09:49:08;4.00;52.20
70184;DHT22;57554;51.546;6.776;2023-12-04T09:51:34;4.00;52.20
70184;DHT22;57554;51.546;6.776;2023-12-04T09:54:02;4.00;52.10
70184;DHT22;57554;51.546;6.776;2023-12-04T09:56:29;4.00;52.00
70184;DHT22;57554;51.546;6.776;2023-12-04T09:59:00;4.00;51.90
70184;DHT22;57554;51.546;6.776;2023-12-04T10:01:31;4.00;51.80
70184;DHT22;57554;51.546;6.776;2023-12-04T10:03:58;4.10;51.60
70184;DHT22;57554;51.546;6.776;2023-12-04T10:06:27;4.10;51.80
70184;DHT22;57554;51.546;6.776;2023-12-04T10:08:53;4.10;51.70
70184;DHT22;57554;51.546;6.776;2023-12-04T10:11:20;4.10;51.70
70184;DHT22;57554;51.546;6.776;2023-12-04T10:13:46;4.20;51.80
70184;DHT22;57554;51.546;6.776;2023-12-04T10:16:11;4.20;51.70
70184;DHT22;57554;51.546;6.776;2023-12-04T10:18:37;4.20;51.60
70184;DHT22;57554;51.546;6.776;2023-12-04T10:21:02;4.20;51.60
70184;DHT22;57554;51.546;6.776;2023-12-04T10:23:37;4.30;51.50
70184;DHT22;57554;51.546;6.776;2023-12-04T10:26:04;4.30;51.40
70184;DHT22;57554;51.546;6.776;2023-12-04T10:28:30;4.30;51.40
70184;DHT22;57554;51.546;6.776;2023-12-04T10:30:56;4.30;51.20
70184;DHT22;57554;51.546;6.776;2023-12-04T10:33:25;4.30;51.10
70184;DHT22;57554;51.546;6.776;2023-12-04T10:35:53;4.40;51.20
70184;DHT22;57554;51.546;6.776;2023-12-04T10:38:20;4.40;51.20
70184;DHT22;57554;51.546;6.776;2023-12-04T10:40:46;4.40;51.10
70184;DHT22;57554;51.546;6.776;2023-12-04T10:43:16;4.40;51.00
70184;DHT22;57554;51.546;6.776;2023-12-04T10:45:43;4.40;51.00
70184;DHT22;57554;51.546;6.776;2023-12-04T10:48:10;4.40;51.10
70184;DHT22;57554;51.546;6.776;2023-12-04T10:50:41;4.50;51.10
70184;DHT22;57554;51.546;6.776;2023-12-04T10:53:08;4.50;51.20
70184;DHT22;57554;51.546;6.776;2023-12-04T10:55:35;4.60;51.30
70184;DHT22;57554;51.546;6.776;2023-12-04T10:58:14;4.60;51.30
70184;DHT22;57554;51.546;6.776;2023-12-04T11:00:48;4.60;51.40
70184;DHT22;57554;51.546;6.776;2023-12-04T11:03:25;4.70;51.30
70184;DHT22;57554;51.546;6.776;2023-12-04T11:05:56;4.60;51.10
70184;DHT22;57554;51.546;6.776;2023-12-04T11:08:28;4.60;51.10
70184;DHT22;57554;51.546;6.776;2023-12-04T11:11:12;4.60;51.10
70184;DHT22;57554;51.546;6.776;2023-12-04T11:13:41;4.50;51.30
70184;DHT22;57554;51.546;6.776;2023-12-04T11:18:43;4.60;51.40
70184;DHT22;57554;51.546;6.776;2023-12-04T11:21:10;4.50;51.50
70184;DHT22;57554;51.546;6.776;2023-12-04T11:23:37;4.50;51.60
70184;DHT22;57554;51.546;6.776;2023-12-04T11:26:04;4.50;51.60
70184;DHT22;57554;51.546;6.776;2023-12-04T11:28:31;4.50;51.80
70184;DHT22;57554;51.546;6.776;2023-12-04T11:30:58;4.50;51.90
70184;DHT22;57554;51.546;6.776;2023-12-04T11:33:24;4.50;51.90
70184;DHT22;57554;51.546;6.776;2023-12-04T11:35:50;4.50;52.00
70184;DHT22;57554;51.546;6.776;2023-12-04T11:38:19;4.50;52.00
70184;DHT22;57554;51.546;6.776;2023-12-04T11:40:48;4.50;52.20
70184;DHT22;57554;51.546;6.776;2023-12-04T11:43:27;4.50;52.30
70184;DHT22;57554;51.546;6.776;2023-12-04T11:45:55;4.50;52.50
70184;DHT22;57554;51.546;6.776;2023-12-04T11:48:32;4.50;52.40
70184;DHT22;57554;51.546;6.776;2023-12-04T11:50:57;4.50;52.50
70184;DHT22;57554;51.546;6.776;2023-12-04T11:53:24;4.50;52.60
70184;DHT22;57554;51.546;6.776;2023-12-04T11:55:50;4.50;52.80
70184;DHT22;57554;51.546;6.776;2023-12-04T11:58:16;4.40;52.90
70184;DHT22;57554;51.546;6.776;2023-12-04T12:00:42;4.40;53.10
70184;DHT22;57554;51.546;6.776;2023-12-04T12:03:08;4.40;53.40
70184;DHT22;57554;51.546;6.776;2023-12-04T12:05:36;4.30;53.50
70184;DHT22;57554;51.546;6.776;2023-12-04T12:08:04;4.30;53.80
70184;DHT22;57554;51.546;6.776;2023-12-04T12:10:31;4.30;54.00
70184;DHT22;57554;51.546;6.776;2023-12-04T12:12:57;4.30;54.30
70184;DHT22;57554;51.546;6.776;2023-12-04T12:15:24;4.20;54.50
70184;DHT22;57554;51.546;6.776;2023-12-04T12:17:50;4.30;54.90
70184;DHT22;57554;51.546;6.776;2023-12-04T12:20:17;4.30;55.10
70184;DHT22;57554;51.546;6.776;2023-12-04T12:22:42;4.20;55.50
70184;DHT22;57554;51.546;6.776;2023-12-04T12:25:11;4.20;55.80
70184;DHT22;57554;51.546;6.776;2023-12-04T12:27:38;4.20;56.20
70184;DHT22;57554;51.546;6.776;2023-12-04T12:30:04;4.20;56.60
70184;DHT22;57554;51.546;6.776;2023-12-04T12:32:34;4.20;57.00
70184;DHT22;57554;51.546;6.776;2023-12-04T12:34:59;4.10;57.30
70184;DHT22;57554;51.546;6.776;2023-12-04T12:37:25;4.10;57.60
70184;DHT22;57554;51.546;6.776;2023-12-04T12:39:51;4.10;58.00
70184;DHT22;57554;51.546;6.776;2023-12-04T12:42:27;4.10;58.50
70184;DHT22;57554;51.546;6.776;2023-12-04T12:44:54;4.00;58.90
70184;DHT22;57554;51.546;6.776;2023-12-04T12:47:21;4.00;59.10
70184;DHT22;57554;51.546;6.776;2023-12-04T12:49:47;4.00;59.30
70184;DHT22;57554;51.546;6.776;2023-12-04T12:52:14;4.00;59.50
70184;DHT22;57554;51.546;6.776;2023-12-04T12:54:41;4.00;59.80
70184;DHT22;57554;51.546;6.776;2023-12-04T12:57:07;4.00;60.00
70184;DHT22;57554;51.546;6.776;2023-12-04T12:59:34;4.00;60.20
70184;DHT22;57554;51.546;6.776;2023-12-04T13:02:00;4.10;60.30
70184;DHT22;57554;51.546;6.776;2023-12-04T13:04:26;4.10;60.60
70184;DHT22;57554;51.546;6.776;2023-12-04T13:06:52;4.00;60.90
70184;DHT22;57554;51.546;6.776;2023-12-04T13:09:18;4.10;61.10
70184;DHT22;57554;51.546;6.776;2023-12-04T13:11:45;4.10;61.30
70184;DHT22;57554;51.546;6.776;2023-12-04T13:14:10;4.20;61.30
70184;DHT22;57554;51.546;6.776;2023-12-04T13:16:36;4.20;61.50
70184;DHT22;57554;51.546;6.776;2023-12-04T13:19:02;4.20;61.60
70184;DHT22;57554;51.546;6.776;2023-12-04T13:21:27;4.30;61.70
70184;DHT22;57554;51.546;6.776;2023-12-04T13:23:54;4.30;61.70
70184;DHT22;57554;51.546;6.776;2023-12-04T13:26:19;4.30;61.90
70184;DHT22;57554;51.546;6.776;2023-12-04T13:28:45;4.30;62.10
70184;DHT22;57554;51.546;6.776;2023-12-04T13:31:11;4.30;62.30
70184;DHT22;57554;51.546;6.776;2023-12-04T13:33:37;4.30;62.50
70184;DHT22;57554;51.546;6.776;2023-12-04T13:36:02;4.30;62.50
70184;DHT22;57554;51.546;6.776;2023-12-04T13:38:29;4.30;62.70
70184;DHT22;57554;51.546;6.776;2023-12-04T13:40:55;4.30;62.90
70184;DHT22;57554;51.546;6.776;2023-12-04T13:43:44;4.20;63.10
70184;DHT22;57554;51.546;6.776;2023-12-04T13:46:15;4.20;63.30
70184;DHT22;57554;51.546;6.776;2023-12-04T13:48:41;4.10;63.60
70184;DHT22;57554;51.546;6.776;2023-12-04T13:51:10;4.10;63.80
70184;DHT22;57554;51.546;6.776;2023-12-04T13:53:36;4.10;64.00
70184;DHT22;57554;51.546;6.776;2023-12-04T13:56:05;4.10;64.20
70184;DHT22;57554;51.546;6.776;2023-12-04T13:58:50;4.10;64.30
70184;DHT22;57554;51.546;6.776;2023-12-04T14:01:25;4.10;64.50
70184;DHT22;57554;51.546;6.776;2023-12-04T14:03:55;4.10;64.60
70184;DHT22;57554;51.546;6.776;2023-12-04T14:06:28;4.10;64.70
70184;DHT22;57554;51.546;6.776;2023-12-04T14:08:53;4.10;64.90
70184;DHT22;57554;51.546;6.776;2023-12-04T14:11:19;4.10;65.00
70184;DHT22;57554;51.546;6.776;2023-12-04T14:13:44;4.10;65.10
70184;DHT22;57554;51.546;6.776;2023-12-04T14:16:10;4.10;65.20
70184;DHT22;57554;51.546;6.776;2023-12-04T14:18:36;4.20;65.30
70184;DHT22;57554;51.546;6.776;2023-12-04T14:21:02;4.10;65.40
70184;DHT22;57554;51.546;6.776;2023-12-04T14:23:27;4.10;65.50
70184;DHT22;57554;51.546;6.776;2023-12-04T14:25:53;4.10;65.60
70184;DHT22;57554;51.546;6.776;2023-12-04T14:28:18;4.10;65.70
70184;DHT22;57554;51.546;6.776;2023-12-04T14:30:45;4.10;65.70
70184;DHT22;57554;51.546;6.776;2023-12-04T14:33:11;4.10;65.90
70184;DHT22;57554;51.546;6.776;2023-12-04T14:35:36;4.20;65.90
70184;DHT22;57554;51.546;6.776;2023-12-04T14:38:03;4.20;65.90
70184;DHT22;57554;51.546;6.776;2023-12-04T14:40:29;4.20;66.00
70184;DHT22;57554;51.546;6.776;2023-12-04T14:42:55;4.20;66.00
70184;DHT22;57554;51.546;6.776;2023-12-04T14:45:21;4.20;66.10
70184;DHT22;57554;51.546;6.776;2023-12-04T14:47:47;4.20;66.20
70184;DHT22;57554;51.546;6.776;2023-12-04T14:50:13;4.20;66.20
70184;DHT22;57554;51.546;6.776;2023-12-04T14:52:39;4.20;66.10
70184;DHT22;57554;51.546;6.776;2023-12-04T14:55:12;4.20;66.10
70184;DHT22;57554;51.546;6.776;2023-12-04T14:57:41;4.30;66.10
70184;DHT22;57554;51.546;6.776;2023-12-04T15:00:07;4.30;66.10
70184;DHT22;57554;51.546;6.776;2023-12-04T15:02:53;4.30;66.10
70184;DHT22;57554;51.546;6.776;2023-12-04T15:05:18;4.30;66.10
70184;DHT22;57554;51.546;6.776;2023-12-04T15:08:03;4.30;66.00
70184;DHT22;57554;51.546;6.776;2023-12-04T15:10:34;4.30;66.00
70184;DHT22;57554;51.546;6.776;2023-12-04T15:13:29;4.30;65.90
70184;DHT22;57554;51.546;6.776;2023-12-04T15:16:04;4.30;65.90
70184;DHT22;57554;51.546;6.776;2023-12-04T15:18:39;4.30;66.00
70184;DHT22;57554;51.546;6.776;2023-12-04T15:21:04;4.30;66.00
70184;DHT22;57554;51.546;6.776;2023-12-04T15:23:31;4.20;66.10
70184;DHT22;57554;51.546;6.776;2023-12-04T15:25:57;4.20;66.20
70184;DHT22;57554;51.546;6.776;2023-12-04T15:28:22;4.20;66.30
70184;DHT22;57554;51.546;6.776;2023-12-04T15:30:48;4.30;66.40
70184;DHT22;57554;51.546;6.776;2023-12-04T15:33:14;4.30;66.50
70184;DHT22;57554;51.546;6.776;2023-12-04T15:35:40;4.30;66.40
70184;DHT22;57554;51.546;6.776;2023-12-04T15:38:07;4.20;66.50
70184;DHT22;57554;51.546;6.776;2023-12-04T15:40:32;4.20;66.60
70184;DHT22;57554;51.546;6.776;2023-12-04T15:42:58;4.10;66.70